createdAt,value
2023-03-20T00:02:18.349Z,34.55
2023-03-20T00:04:47.017Z,33.45
2023-03-20T00:07:15.533Z,32.38
2023-03-20T00:09:44.080Z,31.27
2023-03-20T00:12:16.498Z,32.40
2023-03-20T00:14:45.163Z,32.35
2023-03-20T00:17:18.362Z,31.95
2023-03-20T00:19:47.224Z,30.98
2023-03-20T00:22:15.559Z,29.23
2023-03-20T00:24:44.248Z,29.13
2023-03-20T00:27:16.406Z,28.58
2023-03-20T00:29:45.972Z,29.92
2023-03-20T00:32:15.467Z,29.95
2023-03-20T00:34:44.221Z,30.00
2023-03-20T00:37:14.624Z,32.25
2023-03-20T00:39:43.606Z,34.92
2023-03-20T00:42:19.132Z,35.15
2023-03-20T00:44:59.723Z,32.97
2023-03-20T00:47:30.282Z,35.63
2023-03-20T00:50:03.055Z,36.13
2023-03-20T00:52:31.538Z,34.58
2023-03-20T00:55:01.162Z,32.03
2023-03-20T00:57:36.393Z,31.08
2023-03-20T01:00:08.453Z,35.63
2023-03-20T01:02:36.736Z,33.28
2023-03-20T01:05:06.238Z,33.60
2023-03-20T01:07:34.593Z,35.47
2023-03-20T01:10:05.334Z,34.75
2023-03-20T01:12:33.692Z,35.80
2023-03-20T01:15:02.290Z,34.53
2023-03-20T01:17:30.957Z,35.03
2023-03-20T01:19:59.535Z,35.60
2023-03-20T01:22:27.666Z,34.53
2023-03-20T01:24:56.177Z,33.17
2023-03-20T01:27:24.584Z,34.83
2023-03-20T01:29:53.257Z,35.20
2023-03-20T01:32:21.583Z,33.42
2023-03-20T01:34:53.272Z,33.45
2023-03-20T01:37:26.291Z,34.80
2023-03-20T01:39:56.790Z,36.55
2023-03-20T01:42:25.759Z,33.22
2023-03-20T01:44:54.412Z,35.03
2023-03-20T01:47:24.152Z,32.92
2023-03-20T01:50:14.921Z,33.95
2023-03-20T01:52:43.451Z,31.95
2023-03-20T01:55:12.680Z,33.80
2023-03-20T01:57:42.141Z,34.35
2023-03-20T02:00:12.062Z,35.55
2023-03-20T02:02:47.255Z,34.57
2023-03-20T02:05:32.649Z,35.05
2023-03-20T02:08:11.107Z,35.95
2023-03-20T02:10:41.043Z,35.78
2023-03-20T02:13:22.738Z,36.67
2023-03-20T02:15:57.480Z,37.85
2023-03-20T02:18:59.156Z,36.00
2023-03-20T02:21:47.888Z,37.13
2023-03-20T02:24:19.943Z,37.50
2023-03-20T02:26:53.526Z,35.53
2023-03-20T02:29:42.859Z,35.63
2023-03-20T02:32:18.878Z,35.70
2023-03-20T02:34:56.502Z,37.00
2023-03-20T02:37:31.756Z,35.45
2023-03-20T02:40:01.003Z,35.47
2023-03-20T02:42:31.905Z,34.05
2023-03-20T02:45:14.238Z,33.05
2023-03-20T02:47:49.843Z,32.20
2023-03-20T02:50:32.908Z,32.20
2023-03-20T02:53:18.477Z,31.65
2023-03-20T02:55:53.005Z,32.60
2023-03-20T02:58:48.362Z,31.33
2023-03-20T03:01:21.041Z,33.53
2023-03-20T03:03:52.875Z,34.25
2023-03-20T03:06:31.722Z,34.72
2023-03-20T03:09:12.885Z,29.80
2023-03-20T03:12:04.029Z,30.30
2023-03-20T03:14:33.491Z,30.38
2023-03-20T03:17:03.370Z,29.42
2023-03-20T03:19:33.254Z,31.13
2023-03-20T03:22:01.855Z,30.83
2023-03-20T03:24:40.931Z,33.42
2023-03-20T03:27:17.702Z,31.60
2023-03-20T03:29:48.740Z,32.78
2023-03-20T03:32:44.376Z,34.08
2023-03-20T03:35:18.378Z,32.42
2023-03-20T03:38:01.352Z,33.35
2023-03-20T03:40:34.466Z,33.80
2023-03-20T03:43:05.126Z,34.53
2023-03-20T03:45:39.871Z,32.42
2023-03-20T03:48:10.405Z,31.27
2023-03-20T03:50:51.074Z,30.38
2023-03-20T03:53:23.436Z,30.65
2023-03-20T03:55:54.118Z,31.77
2023-03-20T03:58:29.292Z,33.78
2023-03-20T04:01:01.769Z,34.53
2023-03-20T04:03:38.854Z,35.15
2023-03-20T04:06:10.140Z,34.83
2023-03-20T04:08:40.581Z,32.92
2023-03-20T04:11:19.124Z,33.28
2023-03-20T04:13:49.993Z,31.60
2023-03-20T04:16:19.876Z,35.30
2023-03-20T04:18:48.571Z,33.10
2023-03-20T04:21:19.228Z,31.40
2023-03-20T04:23:47.888Z,29.88
2023-03-20T04:26:17.339Z,29.85
2023-03-20T04:28:47.703Z,31.17
2023-03-20T04:31:19.246Z,30.40
2023-03-20T04:34:13.683Z,31.48
2023-03-20T04:36:43.606Z,30.98
2023-03-20T04:39:14.620Z,31.05
2023-03-20T04:41:44.071Z,29.30
2023-03-20T04:44:13.705Z,28.75
2023-03-20T04:46:51.282Z,29.63
2023-03-20T04:49:19.730Z,32.00
2023-03-20T04:51:49.705Z,34.05
2023-03-20T04:54:26.465Z,32.50
2023-03-20T04:56:57.809Z,34.53
2023-03-20T04:59:26.918Z,33.40
2023-03-20T05:01:57.942Z,35.97
2023-03-20T05:04:26.404Z,32.90
2023-03-20T05:06:56.008Z,31.67
2023-03-20T05:09:28.450Z,35.08
2023-03-20T05:11:58.657Z,33.97
2023-03-20T05:15:00.662Z,32.15
2023-03-20T05:17:50.538Z,31.08
2023-03-20T05:20:31.154Z,32.15
2023-03-20T05:23:06.642Z,43.87
2023-03-20T05:25:44.097Z,46.10
2023-03-20T05:28:26.429Z,39.67
2023-03-20T05:31:25.073Z,34.03
2023-03-20T05:34:12.470Z,35.97
2023-03-20T05:36:50.054Z,36.28
2023-03-20T05:39:31.648Z,32.05
2023-03-20T05:42:18.790Z,38.13
2023-03-20T05:45:10.787Z,45.88
2023-03-20T05:47:47.504Z,56.53
2023-03-20T05:53:11.198Z,58.13
2023-03-20T05:55:48.872Z,63.75
2023-03-20T05:58:37.201Z,30.23
2023-03-20T06:01:34.928Z,29.58
2023-03-20T06:04:22.485Z,38.15
2023-03-20T06:07:06.420Z,41.25
2023-03-20T06:09:36.183Z,82.22
2023-03-20T06:12:10.660Z,56.78
2023-03-20T06:17:25.795Z,57.25
2023-03-20T06:20:01.318Z,48.77
2023-03-20T06:22:31.285Z,39.85
2023-03-20T06:25:00.269Z,39.03
2023-03-20T06:27:36.935Z,28.83
2023-03-20T06:30:06.179Z,29.90
2023-03-20T06:32:37.060Z,33.88
2023-03-20T06:35:09.710Z,33.55
2023-03-20T06:37:39.419Z,36.72
2023-03-20T06:40:13.635Z,34.97
2023-03-20T06:42:43.138Z,33.15
2023-03-20T06:45:12.435Z,33.60
2023-03-20T06:47:54.083Z,32.38
2023-03-20T06:50:23.261Z,32.88
2023-03-20T06:52:52.529Z,32.90
2023-03-20T06:55:39.165Z,32.63
2023-03-20T06:58:07.817Z,33.03
2023-03-20T07:00:37.804Z,30.10
2023-03-20T07:03:08.177Z,31.80
2023-03-20T07:05:38.948Z,31.88
2023-03-20T07:08:10.784Z,34.53
2023-03-20T07:10:39.297Z,31.73
2023-03-20T07:16:03.758Z,34.35
2023-03-20T07:18:38.378Z,35.03
2023-03-20T07:21:08.070Z,35.08
2023-03-20T07:23:37.321Z,35.53
2023-03-20T07:26:06.876Z,32.63
2023-03-20T07:28:36.279Z,37.90
2023-03-20T07:31:23.593Z,33.53
2023-03-20T07:33:59.505Z,35.13
2023-03-20T07:36:28.232Z,35.67
2023-03-20T07:38:57.450Z,37.83
2023-03-20T07:41:28.527Z,37.35
2023-03-20T07:44:05.094Z,35.30
2023-03-20T07:46:46.231Z,38.85
2023-03-20T07:49:21.096Z,39.42
2023-03-20T07:51:50.137Z,33.78
2023-03-20T07:54:18.853Z,30.85
2023-03-20T07:56:47.227Z,34.33
2023-03-20T07:59:16.056Z,32.83
2023-03-20T08:01:44.367Z,31.98
2023-03-20T08:04:13.494Z,32.00
2023-03-20T08:06:43.661Z,32.22
2023-03-20T08:09:12.682Z,31.77
2023-03-20T08:11:40.977Z,29.52
2023-03-20T08:14:09.698Z,27.10
2023-03-20T08:16:38.138Z,29.08
2023-03-20T08:19:06.774Z,29.13
2023-03-20T08:21:35.663Z,28.65
2023-03-20T08:24:04.116Z,31.52
2023-03-20T08:26:32.919Z,31.23
2023-03-20T08:29:02.263Z,28.25
2023-03-20T08:31:31.693Z,29.52
2023-03-20T08:34:01.119Z,28.77
2023-03-20T08:36:31.266Z,30.58
2023-03-20T08:39:00.096Z,27.58
2023-03-20T08:41:28.361Z,26.65
2023-03-20T08:43:56.857Z,28.23
2023-03-20T08:46:25.741Z,27.50
2023-03-20T08:48:54.387Z,28.10
2023-03-20T08:51:22.935Z,26.42
2023-03-20T08:53:51.548Z,27.48
2023-03-20T08:56:20.057Z,30.35
2023-03-20T08:58:48.673Z,27.02
2023-03-20T09:01:19.426Z,27.58
2023-03-20T09:03:48.078Z,27.05
2023-03-20T09:06:16.726Z,28.15
2023-03-20T09:18:26.902Z,26.05
2023-03-20T09:20:56.825Z,25.83
2023-03-20T09:23:33.122Z,27.73
2023-03-20T09:26:01.453Z,29.00
2023-03-20T09:28:33.092Z,27.80
2023-03-20T09:31:02.440Z,30.00
2023-03-20T09:33:34.085Z,26.73
2023-03-20T09:36:03.206Z,27.77
2023-03-20T09:38:33.373Z,28.42
2023-03-20T09:41:02.491Z,25.40
2023-03-20T09:43:46.004Z,25.55
2023-03-20T09:46:32.696Z,26.70
2023-03-20T09:49:19.923Z,28.27
2023-03-20T09:52:10.083Z,25.50
2023-03-20T09:54:53.507Z,24.80
2023-03-20T09:57:32.488Z,25.77
2023-03-20T10:00:07.547Z,25.73
2023-03-20T10:02:43.863Z,25.25
2023-03-20T10:05:18.603Z,21.52
2023-03-20T10:07:47.085Z,22.15
2023-03-20T10:10:16.368Z,21.63
2023-03-20T10:13:00.556Z,21.27
2023-03-20T10:15:41.024Z,21.83
2023-03-20T10:18:09.358Z,20.50
2023-03-20T10:20:43.728Z,22.02
2023-03-20T10:23:27.517Z,22.02
2023-03-20T10:25:59.600Z,21.40
2023-03-20T10:28:34.193Z,20.38
2023-03-20T10:31:17.800Z,19.73
2023-03-20T10:34:05.112Z,22.00
2023-03-20T10:36:39.088Z,22.83
2023-03-20T10:39:13.170Z,20.33
2023-03-20T10:41:45.681Z,21.15
2023-03-20T10:44:19.958Z,20.92
2023-03-20T10:46:51.612Z,19.15
2023-03-20T10:49:22.187Z,18.48
2023-03-20T10:51:56.429Z,19.92
2023-03-20T10:54:31.081Z,18.00
2023-03-20T10:57:18.433Z,16.03
2023-03-20T10:59:49.752Z,15.95
2023-03-20T11:02:20.367Z,19.67
2023-03-20T11:04:48.841Z,16.08
2023-03-20T11:07:24.332Z,17.17
2023-03-20T11:10:13.320Z,15.40
2023-03-20T11:12:43.511Z,15.77
2023-03-20T11:15:30.057Z,22.35
2023-03-20T11:17:58.749Z,20.10
2023-03-20T11:20:28.175Z,16.60
2023-03-20T11:23:00.994Z,18.27
2023-03-20T11:34:05.642Z,25.08
2023-03-20T11:36:36.824Z,25.73
2023-03-20T11:39:14.358Z,25.42
2023-03-20T11:41:54.310Z,19.17
2023-03-20T11:44:26.471Z,20.70
2023-03-20T11:47:11.274Z,22.60
2023-03-20T11:49:55.345Z,15.57
2023-03-20T11:52:28.904Z,13.82
2023-03-20T11:54:59.663Z,13.55
2023-03-20T11:57:31.223Z,13.80
2023-03-20T12:00:03.176Z,13.48
2023-03-20T12:02:33.259Z,13.65
2023-03-20T12:05:02.162Z,17.27
2023-03-20T12:07:34.776Z,20.77
2023-03-20T12:10:06.637Z,13.75
2023-03-20T12:12:36.023Z,15.68
2023-03-20T12:15:13.785Z,15.13
2023-03-20T12:18:00.817Z,16.77
2023-03-20T12:20:37.257Z,17.85
2023-03-20T12:23:17.269Z,19.52
2023-03-20T12:26:09.026Z,19.17
2023-03-20T12:29:01.459Z,15.77
2023-03-20T12:31:42.193Z,17.05
2023-03-20T12:34:20.582Z,15.10
2023-03-20T12:36:50.314Z,14.45
2023-03-20T12:39:24.323Z,16.23
2023-03-20T12:41:59.729Z,16.23
2023-03-20T12:44:44.969Z,15.73
2023-03-20T12:47:34.632Z,17.35
2023-03-20T12:50:12.409Z,18.33
2023-03-20T12:52:56.935Z,14.82
2023-03-20T12:56:03.920Z,14.45
2023-03-20T12:58:45.961Z,16.60
2023-03-20T13:01:21.099Z,17.05
2023-03-20T13:03:55.734Z,14.57
2023-03-20T13:06:41.342Z,14.85
2023-03-20T13:09:09.957Z,14.50
2023-03-20T13:11:52.599Z,14.63
2023-03-20T13:14:35.380Z,14.55
2023-03-20T13:17:26.699Z,14.63
2023-03-20T13:20:13.915Z,13.25
2023-03-20T13:23:01.892Z,16.17
2023-03-20T13:25:49.197Z,15.05
2023-03-20T13:28:36.345Z,15.40
2023-03-20T13:31:08.175Z,13.52
2023-03-20T13:33:52.749Z,19.23
2023-03-20T13:36:43.883Z,21.05
2023-03-20T13:39:19.884Z,24.70
2023-03-20T13:41:49.476Z,18.50
2023-03-20T13:44:21.071Z,23.42
2023-03-20T13:46:54.609Z,24.33
2023-03-20T13:49:29.286Z,26.00
2023-03-20T13:52:08.570Z,17.52
2023-03-20T13:54:53.895Z,17.42
2023-03-20T13:57:37.812Z,14.70
2023-03-20T14:00:08.778Z,20.55
2023-03-20T14:02:46.763Z,19.70
2023-03-20T14:05:22.702Z,25.15
2023-03-20T14:07:57.472Z,33.35
2023-03-20T14:10:26.021Z,32.28
2023-03-20T14:15:39.830Z,36.75
2023-03-20T14:18:16.749Z,21.80
2023-03-20T14:20:52.643Z,27.80
2023-03-20T14:23:36.613Z,15.88
2023-03-20T14:26:23.387Z,15.25
2023-03-20T14:28:54.412Z,16.83
2023-03-20T14:31:25.894Z,16.95
2023-03-20T14:34:08.568Z,15.70
2023-03-20T14:36:51.206Z,20.35
2023-03-20T14:39:32.091Z,12.60
2023-03-20T14:42:06.690Z,16.60
2023-03-20T14:44:46.773Z,37.27
2023-03-20T14:47:21.261Z,40.15
2023-03-20T14:49:52.762Z,21.40
2023-03-20T14:52:40.026Z,65.18
2023-03-20T14:55:20.897Z,53.55
2023-03-20T14:57:56.468Z,46.25
2023-03-20T15:00:27.761Z,48.53
2023-03-20T15:03:19.547Z,33.10
2023-03-20T15:05:48.456Z,30.25
2023-03-20T15:08:25.170Z,30.38
2023-03-20T15:10:57.586Z,26.58
2023-03-20T15:13:26.548Z,20.67
2023-03-20T15:19:10.466Z,17.63
2023-03-20T15:21:41.417Z,21.65
2023-03-20T15:24:18.282Z,27.15
2023-03-20T15:26:46.909Z,27.08
2023-03-20T15:29:19.199Z,22.30
2023-03-20T15:32:06.542Z,23.83
2023-03-20T15:34:41.756Z,25.65
2023-03-20T15:37:15.348Z,33.83
2023-03-20T15:39:47.072Z,31.55
2023-03-20T15:42:17.327Z,36.20
2023-03-20T15:44:48.315Z,34.55
2023-03-20T15:47:21.005Z,34.33
2023-03-20T15:49:53.095Z,47.17
2023-03-20T15:52:31.275Z,35.55
2023-03-20T15:55:00.791Z,31.83
2023-03-20T15:57:35.920Z,40.28
2023-03-20T16:00:06.034Z,113.50
2023-03-20T16:02:36.321Z,88.70
2023-03-20T16:09:02.474Z,36.47
2023-03-20T16:11:41.114Z,38.53
2023-03-20T16:14:16.364Z,40.97
2023-03-20T16:16:45.031Z,48.55
2023-03-20T16:19:15.318Z,72.68
2023-03-20T16:22:03.862Z,77.13
2023-03-20T16:24:38.503Z,57.88
2023-03-20T16:27:14.504Z,49.67
2023-03-20T16:29:44.245Z,52.25
2023-03-20T16:32:22.251Z,54.22
2023-03-20T16:34:52.042Z,55.15
2023-03-20T16:37:28.146Z,56.78
2023-03-20T16:40:06.067Z,51.42
2023-03-20T16:42:34.522Z,50.60
2023-03-20T16:45:05.401Z,73.32
2023-03-20T16:47:39.264Z,54.50
2023-03-20T16:50:11.120Z,51.20
2023-03-20T16:52:41.244Z,48.17
2023-03-20T16:55:15.468Z,43.67
2023-03-20T16:57:47.182Z,45.50
2023-03-20T17:00:33.968Z,48.58
2023-03-20T17:03:16.641Z,44.03
2023-03-20T17:05:47.884Z,48.95
2023-03-20T17:08:17.229Z,48.88
2023-03-20T17:10:49.823Z,47.28
2023-03-20T17:13:17.738Z,58.13
2023-03-20T17:15:46.109Z,58.92
2023-03-20T17:18:15.000Z,34.38
2023-03-20T17:20:44.368Z,21.55
2023-03-20T17:23:18.471Z,12.88
2023-03-20T17:25:50.064Z,10.38
2023-03-20T17:28:21.123Z,17.77
2023-03-20T17:30:50.932Z,30.15
2023-03-20T17:33:21.236Z,35.45
2023-03-20T17:35:54.343Z,42.90
2023-03-20T17:38:22.957Z,35.70
2023-03-20T17:40:52.210Z,51.70
2023-03-20T17:43:23.473Z,41.90
2023-03-20T17:45:52.257Z,23.90
2023-03-20T17:48:21.882Z,20.67
2023-03-20T17:50:51.171Z,48.75
2023-03-20T17:53:24.302Z,45.05
2023-03-20T17:55:53.424Z,24.30
2023-03-20T17:58:23.195Z,18.65
2023-03-20T18:00:52.631Z,31.38
2023-03-20T18:03:21.387Z,15.88
2023-03-20T18:05:51.583Z,18.20
2023-03-20T18:08:21.686Z,17.25
2023-03-20T18:10:52.260Z,14.52
2023-03-20T18:13:22.081Z,15.98
2023-03-20T18:15:52.099Z,15.77
2023-03-20T18:18:23.723Z,18.88
2023-03-20T18:20:54.800Z,24.73
2023-03-20T18:23:23.693Z,20.83
2023-03-20T18:25:52.277Z,19.35
2023-03-20T18:28:23.075Z,23.08
2023-03-20T18:30:52.102Z,23.08
2023-03-20T18:33:25.315Z,66.05
2023-03-20T18:35:54.669Z,22.85
2023-03-20T18:38:24.832Z,29.73
2023-03-20T18:40:53.472Z,25.13
2023-03-20T18:43:22.128Z,29.48
2023-03-20T18:45:50.863Z,65.53
2023-03-20T18:48:19.088Z,45.03
2023-03-20T18:50:51.048Z,24.90
2023-03-20T18:53:19.779Z,24.27
2023-03-20T18:55:48.351Z,38.67
2023-03-20T18:58:21.232Z,13.95
2023-03-20T19:00:50.504Z,14.75
2023-03-20T19:03:18.517Z,18.73
2023-03-20T19:05:47.603Z,21.73
2023-03-20T19:08:16.368Z,14.27
2023-03-20T19:10:45.995Z,11.23
2023-03-20T19:13:16.675Z,9.60
2023-03-20T19:15:46.077Z,22.58
2023-03-20T19:18:17.142Z,32.25
2023-03-20T19:20:48.523Z,82.40
2023-03-20T19:23:18.846Z,117.45
2023-03-20T19:25:48.488Z,25.52
2023-03-20T19:28:37.795Z,36.75
2023-03-20T19:31:09.607Z,19.08
2023-03-20T19:33:38.906Z,28.45
2023-03-20T19:36:08.678Z,17.00
2023-03-20T19:38:37.689Z,12.00
2023-03-20T19:41:08.706Z,11.30
2023-03-20T19:43:51.643Z,18.10
2023-03-20T19:46:38.040Z,21.23
2023-03-20T19:49:17.400Z,13.93
2023-03-20T19:51:46.740Z,11.30
2023-03-20T19:54:15.075Z,14.32
2023-03-20T19:56:44.262Z,12.80
2023-03-20T19:59:15.989Z,10.85
2023-03-20T20:01:46.085Z,20.10
2023-03-20T20:04:15.082Z,15.90
2023-03-20T20:06:47.143Z,25.23
2023-03-20T20:09:16.464Z,17.40
2023-03-20T20:11:48.006Z,17.00
2023-03-20T20:14:17.012Z,19.48
2023-03-20T20:16:47.119Z,24.42
2023-03-20T20:19:16.506Z,29.20
2023-03-20T20:24:34.790Z,44.83
2023-03-20T20:27:17.549Z,47.95
2023-03-20T20:29:48.201Z,24.63
2023-03-20T20:32:18.485Z,15.90
2023-03-20T20:40:48.361Z,12.90
2023-03-20T20:43:39.070Z,18.90
2023-03-20T20:46:05.966Z,22.45
2023-03-20T20:48:35.979Z,21.65
2023-03-20T20:51:04.954Z,22.63
2023-03-20T20:53:33.299Z,12.43
2023-03-20T20:56:01.926Z,14.82
2023-03-20T20:58:30.539Z,15.65
2023-03-20T21:01:01.307Z,18.52
2023-03-20T21:03:29.557Z,18.13
2023-03-20T21:06:06.392Z,27.73
2023-03-20T21:08:35.110Z,17.15
2023-03-20T21:11:14.885Z,17.08
2023-03-20T21:13:43.508Z,14.65
2023-03-20T21:16:12.543Z,13.30
2023-03-20T21:18:40.851Z,13.38
2023-03-20T21:21:10.883Z,16.02
2023-03-20T21:23:39.310Z,27.30
2023-03-20T21:26:08.242Z,22.88
2023-03-20T21:28:37.495Z,19.35
2023-03-20T21:31:23.901Z,16.52
2023-03-20T21:33:54.426Z,20.42
2023-03-20T21:36:23.559Z,24.50
2023-03-20T21:39:09.360Z,26.83
2023-03-20T21:41:39.040Z,27.75
2023-03-20T21:44:07.903Z,29.40
2023-03-20T21:50:19.116Z,18.13
2023-03-20T21:56:09.365Z,18.48
2023-03-20T21:58:33.191Z,18.33
2023-03-20T22:01:34.003Z,19.42
2023-03-20T22:04:19.097Z,18.27
2023-03-20T22:07:23.898Z,18.70
2023-03-20T22:12:50.012Z,22.40
2023-03-20T22:15:33.910Z,19.00
2023-03-20T22:18:12.123Z,21.83
2023-03-20T22:21:07.397Z,21.60
2023-03-20T22:27:03.445Z,26.35
2023-03-20T22:32:27.802Z,17.77
2023-03-20T22:35:33.099Z,16.42
2023-03-20T22:40:51.790Z,16.90
2023-03-20T22:43:44.547Z,21.38
2023-03-20T22:46:05.588Z,16.50
2023-03-20T22:48:40.440Z,17.13
2023-03-20T22:51:08.946Z,14.40
2023-03-20T22:53:37.578Z,16.27
2023-03-20T22:56:06.962Z,16.38
2023-03-20T22:58:35.860Z,15.98
2023-03-20T23:01:04.575Z,10.95
2023-03-20T23:03:41.526Z,8.70
2023-03-20T23:06:23.829Z,10.18
2023-03-20T23:08:56.566Z,18.83
2023-03-20T23:11:43.958Z,15.82
2023-03-20T23:14:44.840Z,12.20
2023-03-20T23:17:14.480Z,7.50
2023-03-20T23:19:54.307Z,11.85
2023-03-20T23:22:30.128Z,12.07
2023-03-20T23:25:02.851Z,9.27
2023-03-20T23:27:38.232Z,6.15
2023-03-20T23:30:07.201Z,4.75
2023-03-20T23:32:38.933Z,4.90
2023-03-20T23:35:08.286Z,4.57
2023-03-20T23:37:36.866Z,6.25
2023-03-20T23:40:06.403Z,6.38
2023-03-20T23:42:34.841Z,5.43
2023-03-20T23:45:17.123Z,5.13
2023-03-20T23:47:45.906Z,5.90
2023-03-20T23:50:26.450Z,5.50
2023-03-20T23:53:09.534Z,5.68
2023-03-20T23:55:46.735Z,5.45
2023-03-20T23:58:15.738Z,5.80
